createdAt,value
2022-11-09T00:01:02.639Z,12.10
2022-11-09T00:03:30.248Z,12.10
2022-11-09T00:05:57.796Z,12.10
2022-11-09T00:08:25.404Z,12.10
2022-11-09T00:10:52.991Z,12.10
2022-11-09T00:13:20.892Z,12.20
2022-11-09T00:15:48.168Z,12.10
2022-11-09T00:18:15.790Z,12.20
2022-11-09T00:20:47.644Z,12.30
2022-11-09T00:23:16.310Z,12.50
2022-11-09T00:25:44.596Z,12.60
2022-11-09T00:28:12.177Z,12.60
2022-11-09T00:30:39.787Z,12.70
2022-11-09T00:33:08.390Z,12.70
2022-11-09T00:35:37.989Z,12.70
2022-11-09T00:38:05.714Z,12.60
2022-11-09T00:40:33.176Z,12.60
2022-11-09T00:43:00.802Z,12.60
2022-11-09T00:45:28.384Z,12.70
2022-11-09T00:47:55.221Z,12.60
2022-11-09T00:50:22.575Z,12.70
2022-11-09T00:52:50.153Z,12.70
2022-11-09T00:55:17.766Z,12.70
2022-11-09T00:57:45.480Z,12.70
2022-11-09T01:00:12.930Z,12.70
2022-11-09T01:02:40.273Z,12.60
2022-11-09T01:05:08.170Z,12.50
2022-11-09T01:07:35.737Z,12.50
2022-11-09T01:10:05.346Z,12.50
2022-11-09T01:12:32.964Z,12.40
2022-11-09T01:15:00.543Z,12.40
2022-11-09T01:17:28.129Z,12.40
2022-11-09T01:19:56.151Z,12.30
2022-11-09T01:22:24.345Z,12.30
2022-11-09T01:24:52.939Z,12.30
2022-11-09T01:27:20.624Z,12.10
2022-11-09T01:29:51.129Z,12.00
2022-11-09T01:32:18.739Z,11.90
2022-11-09T01:34:46.352Z,11.90
2022-11-09T01:37:14.008Z,11.80
2022-11-09T01:39:41.553Z,11.70
2022-11-09T01:42:10.164Z,11.60
2022-11-09T01:44:38.734Z,11.60
2022-11-09T01:47:12.358Z,11.50
2022-11-09T01:49:47.030Z,11.50
2022-11-09T01:52:25.606Z,11.50
2022-11-09T01:55:01.256Z,11.50
2022-11-09T01:57:31.868Z,11.40
2022-11-09T02:00:02.466Z,11.40
2022-11-09T02:02:44.397Z,11.30
2022-11-09T02:05:14.746Z,11.30
2022-11-09T02:07:43.327Z,11.20
2022-11-09T02:10:15.944Z,11.20
2022-11-09T02:12:45.537Z,11.20
2022-11-09T02:15:13.150Z,11.20
2022-11-09T02:17:41.739Z,11.20
2022-11-09T02:20:17.425Z,11.10
2022-11-09T02:22:44.984Z,11.10
2022-11-09T02:25:14.577Z,11.00
2022-11-09T02:27:43.183Z,10.90
2022-11-09T02:30:14.552Z,10.90
2022-11-09T02:32:43.383Z,11.00
2022-11-09T02:35:14.011Z,11.00
2022-11-09T02:37:50.628Z,11.00
2022-11-09T02:40:22.242Z,10.90
2022-11-09T02:42:50.851Z,10.90
2022-11-09T02:45:18.426Z,10.90
2022-11-09T02:47:47.031Z,11.00
2022-11-09T02:50:14.744Z,11.00
2022-11-09T02:52:42.629Z,11.00
2022-11-09T02:55:10.818Z,11.00
2022-11-09T02:57:40.440Z,10.90
2022-11-09T03:03:25.258Z,10.90
2022-11-09T03:05:53.290Z,11.00
2022-11-09T03:08:20.670Z,11.00
2022-11-09T03:10:48.309Z,11.00
2022-11-09T03:13:15.885Z,11.10
2022-11-09T03:15:43.854Z,11.10
2022-11-09T03:18:12.757Z,11.10
2022-11-09T03:20:39.642Z,11.10
2022-11-09T03:23:07.537Z,11.20
2022-11-09T03:25:35.446Z,11.20
2022-11-09T03:28:03.347Z,11.10
2022-11-09T03:30:30.321Z,11.10
2022-11-09T03:33:02.660Z,11.10
2022-11-09T03:35:29.516Z,11.10
2022-11-09T03:37:58.932Z,11.10
2022-11-09T03:40:26.015Z,11.10
2022-11-09T03:42:52.740Z,11.10
2022-11-09T03:45:21.508Z,11.10
2022-11-09T03:47:49.408Z,11.10
2022-11-09T03:50:16.693Z,11.10
2022-11-09T03:52:46.983Z,11.10
2022-11-09T03:55:14.546Z,11.20
2022-11-09T03:57:41.260Z,11.20
2022-11-09T04:00:10.846Z,11.30
2022-11-09T04:02:40.735Z,11.30
2022-11-09T04:05:08.627Z,11.30
2022-11-09T04:07:35.558Z,11.40
2022-11-09T04:10:02.467Z,11.40
2022-11-09T04:12:31.013Z,11.40
2022-11-09T04:14:58.174Z,11.40
2022-11-09T04:17:26.047Z,11.40
2022-11-09T04:19:52.794Z,11.40
2022-11-09T04:22:19.519Z,11.40
2022-11-09T04:24:46.266Z,11.40
2022-11-09T04:27:13.387Z,11.40
2022-11-09T04:29:40.577Z,11.40
2022-11-09T04:32:08.473Z,11.40
2022-11-09T04:34:35.212Z,11.40
2022-11-09T04:37:01.955Z,11.50
2022-11-09T04:39:28.741Z,11.50
2022-11-09T04:42:03.446Z,11.50
2022-11-09T04:44:30.199Z,11.60
2022-11-09T04:46:56.967Z,11.60
2022-11-09T04:49:24.530Z,11.50
2022-11-09T04:51:53.412Z,11.40
2022-11-09T04:54:20.370Z,11.50
2022-11-09T04:56:47.204Z,11.50
2022-11-09T04:59:14.178Z,11.50
2022-11-09T05:01:40.916Z,11.60
2022-11-09T05:04:07.819Z,11.60
2022-11-09T05:06:34.877Z,11.60
2022-11-09T05:09:06.226Z,11.60
2022-11-09T05:11:33.866Z,11.60
2022-11-09T05:14:01.027Z,11.60
2022-11-09T05:16:29.599Z,11.60
2022-11-09T05:18:56.545Z,11.50
2022-11-09T05:21:23.417Z,11.50
2022-11-09T05:23:59.645Z,11.50
2022-11-09T05:26:33.977Z,11.50
2022-11-09T05:29:02.286Z,11.50
2022-11-09T05:34:38.121Z,11.50
2022-11-09T05:37:05.678Z,11.40
2022-11-09T05:39:34.577Z,11.40
2022-11-09T05:42:03.457Z,11.40
2022-11-09T05:44:32.338Z,11.40
2022-11-09T05:47:00.236Z,11.40
2022-11-09T05:49:49.811Z,11.40
2022-11-09T05:56:15.969Z,11.30
2022-11-09T05:58:43.497Z,11.40
2022-11-09T06:01:13.371Z,11.40
2022-11-09T06:03:43.233Z,11.40
2022-11-09T06:06:12.686Z,11.40
2022-11-09T06:08:40.011Z,11.40
2022-11-09T06:11:08.929Z,11.40
2022-11-09T06:13:37.800Z,11.50
2022-11-09T06:16:06.144Z,11.50
2022-11-09T06:18:34.580Z,11.50
2022-11-09T06:21:02.849Z,11.50
2022-11-09T06:23:31.365Z,11.60
2022-11-09T06:26:00.246Z,11.60
2022-11-09T06:28:29.132Z,11.60
2022-11-09T06:31:01.054Z,11.70
2022-11-09T06:33:31.003Z,11.80
2022-11-09T06:36:00.038Z,11.90
2022-11-09T06:38:28.930Z,12.00
2022-11-09T06:40:57.820Z,12.10
2022-11-09T06:43:25.713Z,12.10
2022-11-09T06:45:53.602Z,12.20
2022-11-09T06:48:21.486Z,12.20
2022-11-09T06:50:50.408Z,12.20
2022-11-09T06:53:19.634Z,12.30
2022-11-09T06:55:50.837Z,12.40
2022-11-09T06:58:19.066Z,12.40
2022-11-09T07:00:46.999Z,12.30
2022-11-09T07:03:15.850Z,12.40
2022-11-09T07:05:45.048Z,12.30
2022-11-09T07:08:12.635Z,12.30
2022-11-09T07:10:40.559Z,12.30
2022-11-09T07:13:11.420Z,12.40
2022-11-09T07:15:40.340Z,12.40
2022-11-09T07:18:10.200Z,12.40
2022-11-09T07:20:38.095Z,12.50
2022-11-09T07:23:06.991Z,12.50
2022-11-09T07:25:34.874Z,12.50
2022-11-09T07:28:10.918Z,12.60
2022-11-09T07:30:39.730Z,12.60
2022-11-09T07:33:14.669Z,12.60
2022-11-09T07:35:42.522Z,12.60
2022-11-09T07:38:11.521Z,12.70
2022-11-09T07:40:40.323Z,12.70
2022-11-09T07:43:08.204Z,12.70
2022-11-09T07:45:40.132Z,12.80
2022-11-09T07:48:11.841Z,12.90
2022-11-09T07:50:39.908Z,13.00
2022-11-09T07:53:08.791Z,13.00
2022-11-09T07:55:37.684Z,13.10
2022-11-09T07:58:06.586Z,13.10
2022-11-09T08:00:35.469Z,13.10
2022-11-09T08:03:03.353Z,13.20
2022-11-09T08:05:30.552Z,13.20
2022-11-09T08:08:03.145Z,13.30
2022-11-09T08:10:32.079Z,13.40
2022-11-09T08:13:01.957Z,13.50
2022-11-09T08:15:29.847Z,13.60
2022-11-09T08:18:01.737Z,13.60
2022-11-09T08:20:29.637Z,13.60
2022-11-09T08:23:03.304Z,13.60
2022-11-09T08:25:32.447Z,13.60
2022-11-09T08:28:01.330Z,13.70
2022-11-09T08:30:30.288Z,13.80
2022-11-09T08:32:59.125Z,13.90
2022-11-09T08:35:27.000Z,13.90
2022-11-09T08:37:54.931Z,13.90
2022-11-09T08:40:27.839Z,14.00
2022-11-09T08:42:55.690Z,14.10
2022-11-09T08:45:23.587Z,14.10
2022-11-09T08:47:57.494Z,14.10
2022-11-09T08:50:26.474Z,14.20
2022-11-09T08:52:55.273Z,14.20
2022-11-09T08:55:24.239Z,14.30
2022-11-09T08:57:54.102Z,14.40
2022-11-09T09:00:23.292Z,14.50
2022-11-09T09:02:54.189Z,14.60
2022-11-09T09:05:23.784Z,14.70
2022-11-09T09:07:51.687Z,14.80
2022-11-09T09:10:26.316Z,14.80
2022-11-09T09:15:39.513Z,15.00
2022-11-09T09:18:11.789Z,15.00
2022-11-09T09:21:20.899Z,15.00
2022-11-09T09:23:50.398Z,15.10
2022-11-09T09:26:18.375Z,15.20
2022-11-09T09:28:46.200Z,15.30
2022-11-09T09:31:18.211Z,15.30
2022-11-09T09:33:48.423Z,15.20
2022-11-09T09:36:23.373Z,15.30
2022-11-09T09:38:55.914Z,15.20
2022-11-09T09:41:26.558Z,15.30
2022-11-09T09:43:57.500Z,15.30
2022-11-09T09:46:35.050Z,15.20
2022-11-09T09:49:39.536Z,15.20
2022-11-09T09:52:28.421Z,15.40
2022-11-09T09:55:05.110Z,15.50
2022-11-09T09:57:40.496Z,15.60
2022-11-09T10:00:16.009Z,15.70
2022-11-09T10:02:44.160Z,15.80
2022-11-09T10:05:17.813Z,15.80
2022-11-09T10:07:48.704Z,15.80
2022-11-09T10:10:27.649Z,15.70
2022-11-09T10:13:07.656Z,15.80
2022-11-09T10:15:44.559Z,15.80
2022-11-09T10:18:41.628Z,15.80
2022-11-09T10:21:24.620Z,15.80
2022-11-09T10:23:59.558Z,15.80
2022-11-09T10:26:33.451Z,15.80
2022-11-09T10:29:15.643Z,15.70
2022-11-09T10:31:44.356Z,15.70
2022-11-09T10:34:17.254Z,15.70
2022-11-09T10:36:48.177Z,15.70
2022-11-09T10:39:17.063Z,15.80
2022-11-09T10:42:03.502Z,15.90
2022-11-09T10:44:50.071Z,15.90
2022-11-09T10:47:50.205Z,16.00
2022-11-09T10:50:44.198Z,16.00
2022-11-09T10:53:36.198Z,16.10
2022-11-09T10:56:22.318Z,16.30
2022-11-09T10:59:28.294Z,16.30
2022-11-09T11:02:30.386Z,16.20
2022-11-09T11:05:19.823Z,16.10
2022-11-09T11:08:26.582Z,16.00
2022-11-09T11:11:33.870Z,15.80
2022-11-09T11:14:29.579Z,15.90
2022-11-09T11:17:22.182Z,15.90
2022-11-09T11:20:26.835Z,15.80
2022-11-09T11:23:14.879Z,15.90
2022-11-09T11:26:21.974Z,15.90
2022-11-09T11:29:30.115Z,15.80
2022-11-09T11:32:19.109Z,15.90
2022-11-09T11:35:09.158Z,15.70
2022-11-09T11:38:01.171Z,15.60
2022-11-09T11:40:47.172Z,15.70
2022-11-09T11:43:33.161Z,15.70
2022-11-09T11:46:39.443Z,15.70
2022-11-09T11:49:25.613Z,15.70
2022-11-09T11:52:12.690Z,15.50
2022-11-09T11:55:07.718Z,15.50
2022-11-09T11:58:02.787Z,15.50
2022-11-09T12:00:55.868Z,15.40
2022-11-09T12:03:52.904Z,15.50
2022-11-09T12:06:45.980Z,15.30
2022-11-09T12:09:36.016Z,15.30
2022-11-09T12:12:25.016Z,15.20
2022-11-09T12:15:19.219Z,15.30
2022-11-09T12:18:10.964Z,15.30
2022-11-09T12:21:06.176Z,15.40
2022-11-09T12:23:57.513Z,15.50
2022-11-09T12:26:55.717Z,15.60
2022-11-09T12:30:24.315Z,15.50
2022-11-09T12:33:17.554Z,15.50
2022-11-09T12:36:08.639Z,15.50
2022-11-09T12:39:16.581Z,15.30
2022-11-09T12:42:21.835Z,15.30
2022-11-09T12:45:31.918Z,15.40
2022-11-09T12:48:23.967Z,15.40
2022-11-09T12:51:11.098Z,15.30
2022-11-09T12:54:00.734Z,15.20
2022-11-09T12:56:57.071Z,15.20
2022-11-09T12:59:55.237Z,15.20
2022-11-09T13:03:03.450Z,15.20
2022-11-09T13:05:50.672Z,15.20
2022-11-09T13:08:40.956Z,15.30
2022-11-09T13:11:27.267Z,15.20
2022-11-09T13:14:34.565Z,15.20
2022-11-09T13:17:27.471Z,15.10
2022-11-09T13:20:53.917Z,15.10
2022-11-09T13:26:49.816Z,15.10
2022-11-09T13:29:41.814Z,15.10
2022-11-09T13:32:34.891Z,15.10
2022-11-09T13:35:41.023Z,15.20
2022-11-09T13:38:28.042Z,15.30
2022-11-09T13:41:33.084Z,15.30
2022-11-09T13:44:24.155Z,15.20
2022-11-09T13:47:35.263Z,15.20
2022-11-09T13:50:24.351Z,15.20
2022-11-09T13:53:29.388Z,15.20
2022-11-09T13:56:17.387Z,15.20
2022-11-09T13:59:03.380Z,15.30
2022-11-09T14:01:54.483Z,15.30
2022-11-09T14:04:49.634Z,15.30
2022-11-09T14:07:39.701Z,15.30
2022-11-09T14:10:46.746Z,15.30
2022-11-09T14:13:39.512Z,15.30
2022-11-09T14:16:48.223Z,15.20
2022-11-09T14:19:42.413Z,15.20
2022-11-09T14:22:30.355Z,15.20
2022-11-09T14:25:18.391Z,15.20
2022-11-09T14:28:19.859Z,15.20
2022-11-09T14:31:06.373Z,15.20
2022-11-09T14:34:01.433Z,15.20
2022-11-09T14:36:47.430Z,15.20
2022-11-09T14:39:38.869Z,15.20
2022-11-09T14:42:24.491Z,15.10
2022-11-09T14:45:14.639Z,15.20
2022-11-09T14:48:00.960Z,15.20
2022-11-09T14:50:47.879Z,15.20
2022-11-09T14:53:42.683Z,15.20
2022-11-09T14:56:29.804Z,15.30
2022-11-09T14:59:59.785Z,15.30
2022-11-09T15:02:46.103Z,15.30
2022-11-09T15:13:44.165Z,15.40
2022-11-09T15:16:33.017Z,15.40
2022-11-09T15:19:24.025Z,15.40
2022-11-09T15:22:29.140Z,15.40
2022-11-09T15:25:28.151Z,15.30
2022-11-09T15:28:14.270Z,15.30
2022-11-09T15:31:01.280Z,15.30
2022-11-09T15:33:54.189Z,15.40
2022-11-09T15:36:45.033Z,15.40
2022-11-09T15:39:33.399Z,15.40
2022-11-09T15:42:19.330Z,15.30
2022-11-09T15:45:07.385Z,15.30
2022-11-09T15:47:56.377Z,15.30
2022-11-09T15:50:42.454Z,15.20
2022-11-09T15:53:28.413Z,15.20
2022-11-09T15:56:19.653Z,15.20
2022-11-09T15:59:06.541Z,15.10
2022-11-09T16:01:52.538Z,15.10
2022-11-09T16:04:43.576Z,15.20
2022-11-09T16:07:29.611Z,15.20
2022-11-09T16:10:17.732Z,15.20
2022-11-09T16:13:08.437Z,15.20
2022-11-09T16:16:01.761Z,15.20
2022-11-09T16:18:47.727Z,15.20
2022-11-09T16:21:33.693Z,15.20
2022-11-09T16:24:19.709Z,15.20
2022-11-09T16:27:12.885Z,15.20
2022-11-09T16:30:12.810Z,15.20
2022-11-09T16:32:58.794Z,15.20
2022-11-09T16:35:44.782Z,15.10
2022-11-09T16:38:31.789Z,15.20
2022-11-09T16:41:19.822Z,15.20
2022-11-09T16:44:08.284Z,15.10
2022-11-09T16:46:53.818Z,15.10
2022-11-09T16:49:40.805Z,15.00
2022-11-09T16:52:26.793Z,15.00
2022-11-09T16:55:14.817Z,15.00
2022-11-09T16:58:02.127Z,15.00
2022-11-09T17:03:58.964Z,15.00
2022-11-09T17:06:45.163Z,15.00
2022-11-09T17:09:37.153Z,15.00
2022-11-09T17:12:23.215Z,15.00
2022-11-09T17:15:10.216Z,15.00
2022-11-09T17:17:56.209Z,15.00
2022-11-09T17:20:45.232Z,14.90
2022-11-09T17:23:32.415Z,14.90
2022-11-09T17:26:18.428Z,14.90
2022-11-09T17:29:06.743Z,14.90
2022-11-09T17:31:52.932Z,14.80
2022-11-09T17:34:39.131Z,14.80
2022-11-09T17:37:25.257Z,14.80
2022-11-09T17:40:11.470Z,14.70
2022-11-09T17:42:59.673Z,14.70
2022-11-09T17:45:45.392Z,14.70
2022-11-09T17:48:33.958Z,14.60
2022-11-09T17:51:20.107Z,14.70
2022-11-09T17:54:06.404Z,14.70
2022-11-09T17:56:52.650Z,14.60
2022-11-09T17:59:40.288Z,14.60
2022-11-09T18:02:26.111Z,14.60
2022-11-09T18:05:13.269Z,14.60
2022-11-09T18:08:13.476Z,14.70
2022-11-09T18:10:59.613Z,14.70
2022-11-09T18:13:45.742Z,14.80
2022-11-09T18:16:31.787Z,14.70
2022-11-09T18:19:18.066Z,14.70
2022-11-09T18:22:06.567Z,14.70
2022-11-09T18:24:56.290Z,14.80
2022-11-09T18:27:43.874Z,14.70
2022-11-09T18:30:30.158Z,14.60
2022-11-09T18:33:16.139Z,14.60
2022-11-09T18:36:04.160Z,14.60
2022-11-09T18:38:53.147Z,14.60
2022-11-09T18:41:39.112Z,14.60
2022-11-09T18:44:26.147Z,14.60
2022-11-09T18:47:16.362Z,14.60
2022-11-09T18:50:02.232Z,14.60
2022-11-09T18:52:48.139Z,14.60
2022-11-09T18:55:34.147Z,14.60
2022-11-09T18:58:20.831Z,14.50
2022-11-09T19:01:08.671Z,14.40
2022-11-09T19:03:59.423Z,14.40
2022-11-09T19:06:46.251Z,14.40
2022-11-09T19:09:37.480Z,14.30
2022-11-09T19:12:26.674Z,14.30
2022-11-09T19:15:13.301Z,14.20
2022-11-09T19:18:06.294Z,14.20
2022-11-09T19:20:53.367Z,14.10
2022-11-09T19:23:42.408Z,14.00
2022-11-09T19:26:29.787Z,14.00
2022-11-09T19:29:23.958Z,14.00
2022-11-09T19:32:11.466Z,13.90
2022-11-09T19:34:59.435Z,13.90
2022-11-09T19:37:45.423Z,13.80
2022-11-09T19:40:38.403Z,13.80
2022-11-09T19:43:25.878Z,13.70
2022-11-09T19:46:11.489Z,13.70
2022-11-09T19:48:57.072Z,13.60
2022-11-09T19:51:43.627Z,13.60
2022-11-09T19:54:30.303Z,13.50
2022-11-09T19:57:16.767Z,13.50
2022-11-09T20:00:02.767Z,13.50
2022-11-09T20:02:49.917Z,13.40
2022-11-09T20:05:37.724Z,13.40
2022-11-09T20:08:24.743Z,13.30
2022-11-09T20:11:12.773Z,13.30
2022-11-09T20:14:00.410Z,13.20
2022-11-09T20:16:49.181Z,13.20
2022-11-09T20:19:34.573Z,13.20
2022-11-09T20:22:20.461Z,13.10
2022-11-09T20:25:08.476Z,13.10
2022-11-09T20:27:54.461Z,13.00
2022-11-09T20:30:41.588Z,13.00
2022-11-09T20:33:27.473Z,13.00
2022-11-09T20:36:16.565Z,12.90
2022-11-09T20:39:02.447Z,12.90
2022-11-09T20:41:48.454Z,12.90
2022-11-09T20:44:34.462Z,12.80
2022-11-09T20:47:49.192Z,12.80
2022-11-09T20:50:28.476Z,12.80
2022-11-09T20:53:14.344Z,12.70
2022-11-09T20:55:59.927Z,12.70
2022-11-09T20:58:45.762Z,12.60
2022-11-09T21:01:35.482Z,12.60
2022-11-09T21:04:21.790Z,12.60
2022-11-09T21:07:08.110Z,12.70
2022-11-09T21:09:53.892Z,12.60
2022-11-09T21:12:40.159Z,12.70
2022-11-09T21:15:27.154Z,12.70
2022-11-09T21:18:13.142Z,12.70
2022-11-09T21:21:04.184Z,12.60
2022-11-09T21:24:10.473Z,12.60
2022-11-09T21:27:15.607Z,12.50
2022-11-09T21:30:01.600Z,12.60
2022-11-09T21:32:47.607Z,12.50
2022-11-09T21:35:33.603Z,12.60
2022-11-09T21:38:19.878Z,12.60
2022-11-09T21:41:26.703Z,12.60
2022-11-09T21:44:20.894Z,12.60
2022-11-09T21:47:08.771Z,12.70
2022-11-09T21:49:54.783Z,12.70
2022-11-09T21:52:40.793Z,12.80
2022-11-09T21:55:26.771Z,12.70
2022-11-09T21:58:13.896Z,12.70
2022-11-09T22:01:03.508Z,12.70
2022-11-09T22:03:49.890Z,12.70
2022-11-09T22:06:40.852Z,12.70
2022-11-09T22:09:32.525Z,12.70
2022-11-09T22:12:54.041Z,12.70
2022-11-09T22:15:58.255Z,12.80
2022-11-09T22:19:02.388Z,12.80
2022-11-09T22:21:47.756Z,12.80
2022-11-09T22:24:33.448Z,12.80
2022-11-09T22:27:19.675Z,12.80
2022-11-09T22:30:05.676Z,12.70
2022-11-09T22:32:51.737Z,12.70
2022-11-09T22:35:37.663Z,12.70
2022-11-09T22:38:23.702Z,12.70
2022-11-09T22:41:12.691Z,12.70
2022-11-09T22:43:58.676Z,12.70
2022-11-09T22:46:44.677Z,12.70
2022-11-09T22:49:30.673Z,12.60
2022-11-09T22:52:16.830Z,12.60
2022-11-09T22:55:03.156Z,12.60
2022-11-09T22:57:50.170Z,12.60
2022-11-09T23:00:38.352Z,12.60
2022-11-09T23:03:25.160Z,12.60
2022-11-09T23:06:13.177Z,12.60
2022-11-09T23:09:00.183Z,12.50
2022-11-09T23:11:47.191Z,12.50
2022-11-09T23:14:51.042Z,12.50
2022-11-09T23:17:55.121Z,12.40
2022-11-09T23:20:42.405Z,12.50
2022-11-09T23:23:28.617Z,12.40
2022-11-09T23:26:14.675Z,12.40
2022-11-09T23:29:01.020Z,12.40
2022-11-09T23:31:46.669Z,12.40
2022-11-09T23:34:32.701Z,12.40
2022-11-09T23:37:18.730Z,12.40
2022-11-09T23:40:04.714Z,12.30
2022-11-09T23:42:51.753Z,12.40
2022-11-09T23:45:39.961Z,12.30
2022-11-09T23:48:25.964Z,12.30
2022-11-09T23:51:12.185Z,12.30
2022-11-09T23:54:01.145Z,12.30
2022-11-09T23:56:47.262Z,12.30
2022-11-09T23:59:33.275Z,12.30
